Time,TemperatureF,DewpointF,PressureIn,WindDirection,WindDirectionDegrees,WindSpeedMPH,WindSpeedGustMPH,Humidity,HourlyPrecipIn,Conditions,Clouds,dailyrainin,SoftwareType,DateUTC
2013-10-11 00:13:00,62.3,56.0,30.02,NE,41,13.0,22.0,80,0.00,,,0.00,weatherlink.com 1.10,2013-10-11 04:13:00,
2013-10-11 00:28:00,62.2,56.0,30.02,NNE,31,8.0,21.0,81,0.00,,,0.00,weatherlink.com 1.10,2013-10-11 04:28:00,
2013-10-11 00:43:00,62.1,56.0,30.02,NE,49,14.0,17.0,81,0.00,,,0.00,weatherlink.com 1.10,2013-10-11 04:43:00,
2013-10-11 00:58:00,62.0,56.0,30.02,NE,37,18.0,22.0,81,0.00,,,0.00,weatherlink.com 1.10,2013-10-11 04:58:00,
2013-10-11 01:13:00,61.9,56.0,30.01,NNE,32,12.0,22.0,82,0.00,,,0.00,weatherlink.com 1.10,2013-10-11 05:13:00,
2013-10-11 01:28:00,61.9,57.0,30.01,North,11,11.0,23.0,83,0.00,,,0.00,weatherlink.com 1.10,2013-10-11 05:28:00,
2013-10-11 01:43:00,61.7,57.0,30.01,NE,37,13.0,21.0,83,0.00,,,0.00,weatherlink.com 1.10,2013-10-11 05:43:00,
2013-10-11 01:58:00,61.6,56.0,30.01,NNE,26,16.0,22.0,82,0.00,,,0.00,weatherlink.com 1.10,2013-10-11 05:58:00,
2013-10-11 02:13:00,61.6,56.0,30.01,NE,36,14.0,20.0,83,0.00,,,0.00,weatherlink.com 1.10,2013-10-11 06:13:00,
2013-10-11 02:28:00,61.5,56.0,30.00,NNE,31,9.0,21.0,83,0.00,,,0.00,weatherlink.com 1.10,2013-10-11 06:28:00,
2013-10-11 02:43:00,61.5,56.0,29.99,NE,53,19.0,23.0,83,0.00,,,0.00,weatherlink.com 1.10,2013-10-11 06:43:00,
2013-10-11 02:58:00,61.4,56.0,29.99,NE,38,16.0,22.0,83,0.00,,,0.00,weatherlink.com 1.10,2013-10-11 06:58:00,
2013-10-11 03:13:00,61.4,57.0,29.99,NNE,25,9.0,22.0,84,0.00,,,0.00,weatherlink.com 1.10,2013-10-11 07:13:00,
2013-10-11 03:28:00,61.4,57.0,29.99,North,11,16.0,21.0,84,0.00,,,0.00,weatherlink.com 1.10,2013-10-11 07:28:00,
2013-10-11 03:43:00,61.4,57.0,29.98,NE,37,18.0,22.0,84,0.00,,,0.00,weatherlink.com 1.10,2013-10-11 07:43:00,
2013-10-11 03:58:00,61.4,57.0,29.98,NE,42,14.0,22.0,84,0.00,,,0.00,weatherlink.com 1.10,2013-10-11 07:58:00,
2013-10-11 04:13:00,61.3,57.0,29.98,North,8,16.0,21.0,84,0.00,,,0.00,weatherlink.com 1.10,2013-10-11 08:13:00,
2013-10-11 04:28:00,61.3,57.0,29.98,NE,42,18.0,23.0,85,0.00,,,0.00,weatherlink.com 1.10,2013-10-11 08:28:00,
2013-10-11 04:43:00,61.3,57.0,29.98,NNE,23,14.0,18.0,85,0.00,,,0.00,weatherlink.com 1.10,2013-10-11 08:43:00,
2013-10-11 04:58:00,61.3,57.0,29.99,NE,38,14.0,21.0,84,0.00,,,0.00,weatherlink.com 1.10,2013-10-11 08:58:00,
2013-10-11 05:13:00,61.4,57.0,29.98,NNE,33,15.0,22.0,85,0.00,,,0.00,weatherlink.com 1.10,2013-10-11 09:13:00,
2013-10-11 05:28:00,61.4,57.0,29.98,NNE,28,11.0,21.0,85,0.00,,,0.00,weatherlink.com 1.10,2013-10-11 09:28:00,
2013-10-11 05:43:00,61.6,57.0,29.98,ENE,58,11.0,23.0,85,0.00,,,0.00,weatherlink.com 1.10,2013-10-11 09:43:00,
2013-10-11 05:58:00,61.8,57.0,29.98,NNE,12,14.0,23.0,85,0.00,,,0.00,weatherlink.com 1.10,2013-10-11 09:58:00,
2013-10-11 06:13:00,61.8,57.0,29.99,NNE,27,14.0,24.0,85,0.00,,,0.00,weatherlink.com 1.10,2013-10-11 10:13:00,
2013-10-11 06:28:00,61.6,57.0,29.99,NE,35,8.0,23.0,85,0.00,,,0.00,weatherlink.com 1.10,2013-10-11 10:28:00,
2013-10-11 06:43:00,61.7,57.0,30.00,NE,39,14.0,20.0,85,0.00,,,0.00,weatherlink.com 1.10,2013-10-11 10:43:00,
2013-10-11 06:58:00,61.9,58.0,30.00,NNE,28,12.0,21.0,86,0.00,,,0.00,weatherlink.com 1.10,2013-10-11 10:58:00,
2013-10-11 07:13:00,62.0,58.0,30.00,NE,47,7.0,21.0,87,0.00,,,0.00,weatherlink.com 1.10,2013-10-11 11:13:00,
2013-10-11 07:28:00,62.3,58.0,30.00,NE,52,7.0,22.0,87,0.00,,,0.00,weatherlink.com 1.10,2013-10-11 11:28:00,
2013-10-11 07:43:00,62.2,58.0,30.00,NNE,27,12.0,21.0,86,0.00,,,0.00,weatherlink.com 1.10,2013-10-11 11:43:00,
2013-10-11 07:58:00,62.6,58.0,30.00,NE,39,14.0,24.0,86,0.00,,,0.00,weatherlink.com 1.10,2013-10-11 11:58:00,
2013-10-11 08:13:00,62.8,59.0,30.00,NNE,28,11.0,24.0,87,0.00,,,0.00,weatherlink.com 1.10,2013-10-11 12:13:00,
2013-10-11 08:28:00,62.8,59.0,30.00,NE,41,18.0,21.0,86,0.00,,,0.00,weatherlink.com 1.10,2013-10-11 12:28:00,
2013-10-11 08:43:00,62.8,59.0,30.00,NE,40,12.0,17.0,86,0.00,,,0.00,weatherlink.com 1.10,2013-10-11 12:43:00,
2013-10-11 08:58:00,62.8,58.0,29.99,NE,44,13.0,19.0,85,0.00,,,0.00,weatherlink.com 1.10,2013-10-11 12:58:00,
2013-10-11 09:13:00,63.0,59.0,30.00,NNE,23,17.0,19.0,85,0.00,,,0.00,weatherlink.com 1.10,2013-10-11 13:13:00,
2013-10-11 09:29:00,62.9,58.0,30.00,North,8,16.0,18.0,85,0.00,,,0.00,weatherlink.com 1.10,2013-10-11 13:29:00,
2013-10-11 09:43:00,62.9,58.0,30.00,NE,37,16.0,19.0,84,0.00,,,0.00,weatherlink.com 1.10,2013-10-11 13:43:00,
2013-10-11 09:58:00,63.0,58.0,30.00,NNE,19,12.0,21.0,84,0.00,,,0.00,weatherlink.com 1.10,2013-10-11 13:58:00,
2013-10-11 10:13:00,63.1,58.0,30.01,NNE,29,10.0,20.0,83,0.00,,,0.00,weatherlink.com 1.10,2013-10-11 14:13:00,
2013-10-11 10:28:00,63.4,59.0,30.00,NE,34,13.0,24.0,84,0.00,,,0.00,weatherlink.com 1.10,2013-10-11 14:28:00,
2013-10-11 10:43:00,63.7,59.0,30.01,NNE,28,9.0,22.0,84,0.00,,,0.00,weatherlink.com 1.10,2013-10-11 14:43:00,
2013-10-11 10:59:00,64.1,59.0,30.01,NE,51,14.0,20.0,84,0.00,,,0.00,weatherlink.com 1.10,2013-10-11 14:59:00,
2013-10-11 11:13:00,64.1,60.0,30.00,NNE,30,17.0,20.0,85,0.00,,,0.00,weatherlink.com 1.10,2013-10-11 15:13:00,
2013-10-11 11:29:00,64.2,60.0,30.01,NE,44,16.0,21.0,85,0.00,,,0.00,weatherlink.com 1.10,2013-10-11 15:29:00,
2013-10-11 11:44:00,64.3,59.0,30.00,North,1,15.0,22.0,84,0.00,,,0.00,weatherlink.com 1.10,2013-10-11 15:44:00,
2013-10-11 11:59:00,64.3,59.0,30.01,NE,53,12.0,21.0,84,0.00,,,0.00,weatherlink.com 1.10,2013-10-11 15:59:00,
2013-10-11 12:14:00,64.2,59.0,30.00,NNE,22,14.0,23.0,84,0.00,,,0.00,weatherlink.com 1.10,2013-10-11 16:14:00,
2013-10-11 12:29:00,64.0,60.0,30.00,NE,35,14.0,22.0,86,0.00,,,0.00,weatherlink.com 1.10,2013-10-11 16:29:00,
2013-10-11 12:44:00,64.8,60.0,30.00,NE,44,12.0,22.0,84,0.00,,,0.00,weatherlink.com 1.10,2013-10-11 16:44:00,
2013-10-11 12:59:00,65.0,60.0,30.00,NE,56,12.0,22.0,83,0.00,,,0.00,weatherlink.com 1.10,2013-10-11 16:59:00,
2013-10-11 13:14:00,64.5,60.0,29.99,NE,37,12.0,20.0,86,0.00,,,0.00,weatherlink.com 1.10,2013-10-11 17:14:00,
2013-10-11 13:29:00,64.9,60.0,29.99,NNE,25,9.0,18.0,85,0.00,,,0.00,weatherlink.com 1.10,2013-10-11 17:29:00,
2013-10-11 13:44:00,65.0,60.0,29.98,NE,34,11.0,17.0,85,0.00,,,0.00,weatherlink.com 1.10,2013-10-11 17:44:00,
2013-10-11 13:59:00,65.6,60.0,29.98,NE,49,8.0,17.0,83,0.00,,,0.00,weatherlink.com 1.10,2013-10-11 17:59:00,
2013-10-11 14:14:00,66.2,60.0,29.98,NNE,27,12.0,21.0,80,0.00,,,0.00,weatherlink.com 1.10,2013-10-11 18:14:00,
2013-10-11 14:29:00,66.4,60.0,29.98,NNE,32,6.0,15.0,81,0.00,,,0.00,weatherlink.com 1.10,2013-10-11 18:29:00,
2013-10-11 14:44:00,66.7,60.0,29.98,NE,42,14.0,20.0,78,0.00,,,0.00,weatherlink.com 1.10,2013-10-11 18:44:00,
2013-10-11 14:59:00,66.9,60.0,29.97,NE,39,13.0,16.0,79,0.00,,,0.00,weatherlink.com 1.10,2013-10-11 18:59:00,
2013-10-11 15:14:00,67.1,61.0,29.97,North,356,6.0,16.0,80,0.00,,,0.00,weatherlink.com 1.10,2013-10-11 19:14:00,
2013-10-11 15:29:00,67.3,61.0,29.97,NE,53,13.0,19.0,79,0.00,,,0.00,weatherlink.com 1.10,2013-10-11 19:29:00,
2013-10-11 15:44:00,67.4,61.0,29.96,NE,53,18.0,19.0,79,0.00,,,0.00,weatherlink.com 1.10,2013-10-11 19:44:00,
2013-10-11 15:59:00,67.5,61.0,29.97,NE,38,5.0,13.0,80,0.00,,,0.00,weatherlink.com 1.10,2013-10-11 19:59:00,
2013-10-11 16:14:00,67.6,61.0,29.97,NE,52,8.0,17.0,80,0.00,,,0.00,weatherlink.com 1.10,2013-10-11 20:14:00,
2013-10-11 16:29:00,67.7,62.0,29.97,NE,41,9.0,16.0,81,0.00,,,0.00,weatherlink.com 1.10,2013-10-11 20:29:00,
2013-10-11 16:44:00,67.8,61.0,29.97,NE,40,9.0,16.0,80,0.00,,,0.00,weatherlink.com 1.10,2013-10-11 20:44:00,
2013-10-11 16:59:00,67.9,61.0,29.98,ENE,62,13.0,18.0,79,0.00,,,0.00,weatherlink.com 1.10,2013-10-11 20:59:00,
2013-10-11 17:14:00,67.8,61.0,29.97,NNE,30,12.0,20.0,79,0.00,,,0.00,weatherlink.com 1.10,2013-10-11 21:14:00,
2013-10-11 17:29:00,67.7,61.0,29.98,ENE,72,10.0,17.0,80,0.00,,,0.00,weatherlink.com 1.10,2013-10-11 21:29:00,
2013-10-11 17:44:00,67.8,61.0,29.99,NE,53,7.0,14.0,80,0.00,,,0.00,weatherlink.com 1.10,2013-10-11 21:44:00,
2013-10-11 17:59:00,67.7,62.0,30.00,NE,53,7.0,12.0,82,0.00,,,0.00,weatherlink.com 1.10,2013-10-11 21:59:00,
2013-10-11 18:14:00,67.7,62.0,30.00,NE,47,5.0,9.0,82,0.00,,,0.00,weatherlink.com 1.10,2013-10-11 22:14:00,
2013-10-11 18:29:00,67.7,61.0,30.01,NE,44,6.0,12.0,79,0.00,,,0.00,weatherlink.com 1.10,2013-10-11 22:29:00,
2013-10-11 18:44:00,67.8,61.0,30.01,NE,49,5.0,10.0,78,0.00,,,0.00,weatherlink.com 1.10,2013-10-11 22:44:00,
2013-10-11 18:59:00,67.8,61.0,30.01,NNE,29,5.0,9.0,78,0.00,,,0.00,weatherlink.com 1.10,2013-10-11 22:59:00,
2013-10-11 19:14:00,67.7,61.0,30.01,NE,42,8.0,10.0,78,0.00,,,0.00,weatherlink.com 1.10,2013-10-11 23:14:00,
2013-10-11 19:29:00,67.8,61.0,30.01,NE,49,10.0,12.0,78,0.00,,,0.00,weatherlink.com 1.10,2013-10-11 23:29:00,
2013-10-11 19:44:00,68.0,61.0,30.01,NE,48,8.0,15.0,79,0.00,,,0.00,weatherlink.com 1.10,2013-10-11 23:44:00,
2013-10-11 19:59:00,67.9,62.0,30.01,NE,49,9.0,16.0,82,0.00,,,0.00,weatherlink.com 1.10,2013-10-11 23:59:00,
2013-10-11 20:14:00,67.7,63.0,30.02,NE,41,6.0,13.0,84,0.00,,,0.00,weatherlink.com 1.10,2013-10-12 00:14:00,
2013-10-11 20:29:00,67.7,62.0,30.02,NE,53,9.0,17.0,82,0.00,,,0.00,weatherlink.com 1.10,2013-10-12 00:29:00,
2013-10-11 20:44:00,67.7,61.0,30.02,ENE,68,15.0,16.0,79,0.00,,,0.00,weatherlink.com 1.10,2013-10-12 00:44:00,
2013-10-11 20:59:00,67.8,60.0,30.02,NNE,27,7.0,17.0,77,0.00,,,0.00,weatherlink.com 1.10,2013-10-12 00:59:00,
2013-10-11 21:14:00,67.7,60.0,30.02,NNE,32,10.0,17.0,76,0.00,,,0.00,weatherlink.com 1.10,2013-10-12 01:14:00,
2013-10-11 21:29:00,67.7,60.0,30.02,ENE,68,8.0,17.0,76,0.00,,,0.00,weatherlink.com 1.10,2013-10-12 01:29:00,
2013-10-11 21:44:00,67.5,60.0,30.03,NE,51,7.0,17.0,77,0.00,,,0.00,weatherlink.com 1.10,2013-10-12 01:44:00,
2013-10-11 21:59:00,67.3,60.0,30.04,NE,46,10.0,16.0,78,0.00,,,0.00,weatherlink.com 1.10,2013-10-12 01:59:00,
2013-10-11 22:14:00,67.2,60.0,30.04,East,85,8.0,13.0,78,0.00,,,0.00,weatherlink.com 1.10,2013-10-12 02:14:00,
2013-10-11 22:29:00,67.1,60.0,30.04,NNE,30,6.0,19.0,78,0.00,,,0.00,weatherlink.com 1.10,2013-10-12 02:29:00,
2013-10-11 22:44:00,66.9,59.0,30.04,NE,34,13.0,16.0,75,0.00,,,0.00,weatherlink.com 1.10,2013-10-12 02:44:00,
2013-10-11 22:59:00,67.0,55.0,30.04,NE,48,16.0,17.0,65,0.00,,,0.00,weatherlink.com 1.10,2013-10-12 02:59:00,
2013-10-11 23:14:00,66.9,55.0,30.03,NE,54,14.0,17.0,65,0.00,,,0.00,weatherlink.com 1.10,2013-10-12 03:14:00,
2013-10-11 23:29:00,66.9,52.0,30.03,ENE,58,14.0,22.0,60,0.00,,,0.00,weatherlink.com 1.10,2013-10-12 03:29:00,
2013-10-11 23:44:00,66.6,53.0,30.03,NE,40,11.0,20.0,63,0.00,,,0.00,weatherlink.com 1.10,2013-10-12 03:44:00,
2013-10-11 23:59:00,66.5,51.0,30.03,ENE,63,6.0,21.0,58,0.00,,,0.00,weatherlink.com 1.10,2013-10-12 03:59:00,